Time;durP1;ratioP1;P1;durP2;ratioP2;P2;SDS_P1;SDS_P2;PMS_P1;PMS_P2;Temp;Humidity;BMP_temperature;BMP_pressure;BME280_temperature;BME280_humidity;BME280_pressure;Samples;Min_cycle;Max_cycle;Signal;HPM_P1;HPM_P2
2022/08/26 00:00:29;;;;;;;9.15;8.55;;;;;;;;;;5036773;28;20064;-62
2022/08/26 00:02:55;;;;;;;8.80;8.20;;;;;;;;;;5039005;28;20116;-62
2022/08/26 00:05:21;;;;;;;10.20;9.45;;;;;;;;;;5036098;28;20641;-62
2022/08/26 00:07:46;;;;;;;9.90;9.30;;;;;;;;;;5037511;28;20025;-62
2022/08/26 00:10:12;;;;;;;8.18;7.57;;;;;;;;;;5035679;28;20074;-62
2022/08/26 00:12:38;;;;;;;9.93;9.18;;;;;;;;;;5036126;28;20120;-62
2022/08/26 00:15:06;;;;;;;9.02;8.23;;;;;;;;;;5032953;28;20030;-62
2022/08/26 00:17:31;;;;;;;9.60;9.00;;;;;;;;;;5034982;28;20041;-63
2022/08/26 00:19:57;;;;;;;9.10;8.50;;;;;;;;;;5037030;28;20362;-63
2022/08/26 00:22:22;;;;;;;10.40;9.75;;;;;;;;;;5035944;28;20073;-63
2022/08/26 00:24:47;;;;;;;9.15;8.55;;;;;;;;;;5035271;28;20046;-63
2022/08/26 00:27:13;;;;;;;10.52;9.85;;;;;;;;;;5037087;28;20039;-63
2022/08/26 00:29:38;;;;;;;10.15;9.45;;;;;;;;;;5033889;28;20033;-63
2022/08/26 00:32:05;;;;;;;10.23;9.60;;;;;;;;;;5034079;28;20041;-62
2022/08/26 00:34:30;;;;;;;11.77;11.07;;;;;;;;;;5035884;28;20117;-62
2022/08/26 00:36:55;;;;;;;11.43;10.52;;;;;;;;;;5035142;28;20064;-62
2022/08/26 00:39:21;;;;;;;10.90;10.20;;;;;;;;;;5037130;28;20289;-62
2022/08/26 00:41:47;;;;;;;9.43;8.73;;;;;;;;;;5035489;28;20047;-62
2022/08/26 00:44:13;;;;;;;10.07;9.48;;;;;;;;;;5035655;28;20709;-62
2022/08/26 00:46:44;;;;;;;10.95;10.15;;;;;;;;;;5035376;28;20489;-62
2022/08/26 00:49:35;;;;;;;19.33;18.23;;;;;;;;;;5035133;28;20033;-63
2022/08/26 00:52:05;;;;;;;11.82;11.13;;;;;;;;;;5026201;28;20033;-62
2022/08/26 00:54:35;;;;;;;12.98;12.00;;;;;;;;;;5037212;28;20041;-61
2022/08/26 00:57:05;;;;;;;10.90;10.20;;;;;;;;;;5036113;28;20059;-63
2022/08/26 00:59:31;;;;;;;12.57;11.82;;;;;;;;;;5037139;28;20025;-62
2022/08/26 01:01:56;;;;;;;14.68;13.77;;;;;;;;;;5033494;28;20048;-64
2022/08/26 01:04:23;;;;;;;13.73;12.93;;;;;;;;;;5034137;28;20037;-64
2022/08/26 01:06:51;;;;;;;15.13;14.23;;;;;;;;;;5036168;28;20033;-63
2022/08/26 01:09:18;;;;;;;13.40;12.60;;;;;;;;;;5035348;28;20025;-63
2022/08/26 01:11:44;;;;;;;14.25;13.45;;;;;;;;;;5034769;28;20129;-63
2022/08/26 01:14:11;;;;;;;14.75;13.85;;;;;;;;;;5035682;28;20033;-63
2022/08/26 01:16:36;;;;;;;15.50;14.60;;;;;;;;;;5025898;28;20029;-63
2022/08/26 01:19:14;;;;;;;20.80;19.60;;;;;;;;;;5036608;28;20037;-63
2022/08/26 01:21:47;;;;;;;21.77;20.55;;;;;;;;;;5034192;28;20139;-64
2022/08/26 01:24:12;;;;;;;26.38;24.98;;;;;;;;;;5034265;28;20475;-65
2022/08/26 01:26:41;;;;;;;21.33;20.15;;;;;;;;;;5033999;28;20048;-64
2022/08/26 01:29:11;;;;;;;23.15;21.85;;;;;;;;;;5035743;28;20095;-64
2022/08/26 01:31:48;;;;;;;20.17;19.08;;;;;;;;;;5035171;28;20037;-64
2022/08/26 01:34:18;;;;;;;18.70;17.60;;;;;;;;;;5035749;28;20617;-64
2022/08/26 01:36:44;;;;;;;20.50;19.35;;;;;;;;;;5037332;28;20032;-64
2022/08/26 01:39:10;;;;;;;22.17;20.90;;;;;;;;;;5034729;28;20035;-64
2022/08/26 01:41:37;;;;;;;18.00;17.00;;;;;;;;;;5038235;28;20049;-64
2022/08/26 01:44:06;;;;;;;19.17;18.08;;;;;;;;;;5034412;28;20036;-64
2022/08/26 01:46:33;;;;;;;21.00;19.85;;;;;;;;;;5034025;28;20036;-64
2022/08/26 01:49:01;;;;;;;19.38;18.30;;;;;;;;;;5035341;28;20782;-64
2022/08/26 01:51:29;;;;;;;21.60;20.13;;;;;;;;;;5035900;28;20037;-64
2022/08/26 01:53:54;;;;;;;18.90;17.80;;;;;;;;;;5035374;28;20034;-64
2022/08/26 01:56:21;;;;;;;25.75;24.35;;;;;;;;;;5035549;28;20033;-64
2022/08/26 01:58:54;;;;;;;25.25;23.85;;;;;;;;;;5036578;28;20668;-63
2022/08/26 02:01:21;;;;;;;26.73;25.25;;;;;;;;;;5039182;28;20188;-63
2022/08/26 02:04:17;;;;;;;26.60;25.15;;;;;;;;;;5040037;28;20048;-64
2022/08/26 02:06:43;;;;;;;27.27;25.80;;;;;;;;;;5040459;28;20084;-64
2022/08/26 02:09:10;;;;;;;28.63;27.13;;;;;;;;;;5037661;28;20097;-64
2022/08/26 02:11:35;;;;;;;32.67;30.95;;;;;;;;;;5034269;28;20072;-63
2022/08/26 02:14:19;;;;;;;30.75;29.05;;;;;;;;;;5036080;28;20088;-64
2022/08/26 02:16:47;;;;;;;31.63;29.92;;;;;;;;;;5038958;28;20061;-64
2022/08/26 02:19:19;;;;;;;33.50;31.60;;;;;;;;;;5039966;28;20025;-64
2022/08/26 02:21:47;;;;;;;36.58;34.67;;;;;;;;;;5038836;28;20115;-64
2022/08/26 02:24:19;;;;;;;35.22;33.22;;;;;;;;;;5039233;28;20028;-64
2022/08/26 02:26:46;;;;;;;33.78;32.03;;;;;;;;;;5040849;28;20044;-64
2022/08/26 02:29:22;;;;;;;36.88;34.97;;;;;;;;;;5040677;28;20025;-63
2022/08/26 02:31:48;;;;;;;37.47;35.58;;;;;;;;;;5037635;28;20076;-64
2022/08/26 02:34:18;;;;;;;36.25;34.35;;;;;;;;;;5037393;28;20061;-63
2022/08/26 02:36:44;;;;;;;37.80;35.80;;;;;;;;;;5039923;28;20045;-64
2022/08/26 02:39:10;;;;;;;34.97;33.17;;;;;;;;;;5038075;28;20406;-63
2022/08/26 02:41:35;;;;;;;36.92;35.00;;;;;;;;;;5038260;28;20025;-64
2022/08/26 02:44:01;;;;;;;34.30;32.45;;;;;;;;;;5037148;28;20042;-63
2022/08/26 02:46:26;;;;;;;38.67;36.60;;;;;;;;;;5040220;28;20856;-63
2022/08/26 02:48:52;;;;;;;34.63;32.83;;;;;;;;;;5038773;28;20098;-63
2022/08/26 02:51:18;;;;;;;35.42;33.45;;;;;;;;;;5037230;28;20052;-64
2022/08/26 02:53:43;;;;;;;34.60;32.85;;;;;;;;;;5036370;28;20025;-63
2022/08/26 02:56:09;;;;;;;36.08;34.17;;;;;;;;;;5039167;28;20021;-63
2022/08/26 02:58:35;;;;;;;36.42;34.53;;;;;;;;;;5038466;28;20072;-63
2022/08/26 03:01:00;;;;;;;31.85;30.17;;;;;;;;;;5037282;28;20025;-63
2022/08/26 03:03:26;;;;;;;34.40;32.58;;;;;;;;;;5039286;28;20060;-63
2022/08/26 03:05:52;;;;;;;28.52;27.02;;;;;;;;;;5039822;28;20025;-63
2022/08/26 03:08:18;;;;;;;39.05;37.05;;;;;;;;;;5037575;28;20490;-63
2022/08/26 03:10:46;;;;;;;36.83;34.92;;;;;;;;;;5044721;28;20435;-63
2022/08/26 03:13:12;;;;;;;37.17;35.25;;;;;;;;;;5036208;28;20159;-63
2022/08/26 03:15:37;;;;;;;36.22;34.25;;;;;;;;;;5033636;28;20099;-64
2022/08/26 03:18:03;;;;;;;35.95;34.10;;;;;;;;;;5035243;28;20032;-63
2022/08/26 03:20:29;;;;;;;35.88;33.97;;;;;;;;;;5035352;28;20035;-64
2022/08/26 03:22:55;;;;;;;34.72;32.90;;;;;;;;;;5038386;28;20037;-63
2022/08/26 03:25:21;;;;;;;36.90;34.95;;;;;;;;;;5033409;28;20029;-64
2022/08/26 03:27:47;;;;;;;34.75;32.97;;;;;;;;;;5036687;28;20025;-63
2022/08/26 03:32:57;;;;;;;35.22;33.38;;;;;;;;;;5036779;28;20033;-64
2022/08/26 03:35:24;;;;;;;30.42;28.73;;;;;;;;;;5035675;28;20013;-63
2022/08/26 03:37:50;;;;;;;37.13;35.15;;;;;;;;;;5037053;28;20639;-63
2022/08/26 03:40:18;;;;;;;32.85;31.15;;;;;;;;;;5035708;28;20466;-63
2022/08/26 03:42:44;;;;;;;36.63;34.75;;;;;;;;;;5034743;28;20033;-63
2022/08/26 03:45:11;;;;;;;34.15;32.35;;;;;;;;;;5041951;28;20027;-63
2022/08/26 03:47:38;;;;;;;32.42;30.73;;;;;;;;;;5034961;28;20091;-63
2022/08/26 03:50:06;;;;;;;30.75;29.08;;;;;;;;;;5034074;28;20032;-63
2022/08/26 03:52:32;;;;;;;35.60;33.70;;;;;;;;;;5033919;28;20035;-63
2022/08/26 03:54:57;;;;;;;30.90;29.27;;;;;;;;;;5034249;28;20022;-63
2022/08/26 03:57:22;;;;;;;31.30;29.60;;;;;;;;;;5035920;28;20029;-63
2022/08/26 03:59:48;;;;;;;31.48;29.77;;;;;;;;;;5032812;28;20064;-64
2022/08/26 04:02:14;;;;;;;24.42;23.02;;;;;;;;;;5044985;28;20044;-63
2022/08/26 04:04:39;;;;;;;27.42;26.00;;;;;;;;;;5032560;28;20196;-64
2022/08/26 04:07:05;;;;;;;30.10;28.52;;;;;;;;;;5033733;28;20570;-62
2022/08/26 04:09:30;;;;;;;37.17;35.28;;;;;;;;;;5037119;28;20032;-62
2022/08/26 04:11:57;;;;;;;32.20;30.50;;;;;;;;;;5034667;28;20416;-61
2022/08/26 04:14:24;;;;;;;30.92;29.13;;;;;;;;;;5036638;28;20036;-62
2022/08/26 04:16:51;;;;;;;30.98;29.33;;;;;;;;;;5032085;28;20040;-61
2022/08/26 04:19:17;;;;;;;33.25;31.55;;;;;;;;;;5036546;28;20112;-61
2022/08/26 04:21:43;;;;;;;30.85;29.17;;;;;;;;;;5031538;28;20044;-61
2022/08/26 04:24:11;;;;;;;32.95;31.15;;;;;;;;;;5034686;28;20037;-61
2022/08/26 04:26:37;;;;;;;29.48;27.92;;;;;;;;;;5033626;28;20029;-62
2022/08/26 04:29:06;;;;;;;30.27;28.67;;;;;;;;;;5035810;28;20566;-63
2022/08/26 04:31:34;;;;;;;33.78;31.98;;;;;;;;;;5037726;28;20059;-63
2022/08/26 04:34:00;;;;;;;28.17;26.67;;;;;;;;;;5036507;28;20017;-62
2022/08/26 04:36:25;;;;;;;33.83;32.05;;;;;;;;;;5033013;28;20037;-62
2022/08/26 04:38:51;;;;;;;28.10;26.60;;;;;;;;;;5033558;28;20095;-62
2022/08/26 04:41:18;;;;;;;26.65;25.15;;;;;;;;;;5035738;28;20104;-62
2022/08/26 04:43:45;;;;;;;25.05;23.65;;;;;;;;;;5036163;28;20343;-62
2022/08/26 04:46:11;;;;;;;27.15;25.73;;;;;;;;;;5035108;28;20056;-62
2022/08/26 04:48:37;;;;;;;28.58;27.05;;;;;;;;;;5032971;28;20502;-62
2022/08/26 04:51:03;;;;;;;26.65;25.20;;;;;;;;;;5031663;28;20068;-62
2022/08/26 04:53:29;;;;;;;27.52;25.98;;;;;;;;;;5033432;28;20037;-62
2022/08/26 04:55:55;;;;;;;29.98;28.40;;;;;;;;;;5036558;28;20128;-62
2022/08/26 04:58:23;;;;;;;32.65;30.92;;;;;;;;;;5034685;28;20120;-62
2022/08/26 05:00:51;;;;;;;24.63;23.30;;;;;;;;;;5035182;28;20029;-62
2022/08/26 05:03:17;;;;;;;26.17;24.77;;;;;;;;;;5042678;28;20159;-62
2022/08/26 05:05:45;;;;;;;20.20;19.05;;;;;;;;;;5032058;28;20549;-62
2022/08/26 05:08:12;;;;;;;20.77;19.63;;;;;;;;;;5036291;28;20044;-62
2022/08/26 05:10:44;;;;;;;18.90;17.85;;;;;;;;;;5034457;28;20545;-62
2022/08/26 05:13:11;;;;;;;20.83;19.65;;;;;;;;;;5034328;28;20090;-62
2022/08/26 05:15:36;;;;;;;18.30;17.23;;;;;;;;;;5033962;28;20041;-62
2022/08/26 05:18:04;;;;;;;24.17;22.15;;;;;;;;;;5033167;28;20482;-62
2022/08/26 05:20:31;;;;;;;29.05;27.50;;;;;;;;;;5033235;28;20083;-62
2022/08/26 05:23:00;;;;;;;36.63;34.63;;;;;;;;;;5033545;28;20067;-62
2022/08/26 05:25:29;;;;;;;25.23;23.77;;;;;;;;;;5034238;28;20033;-62
2022/08/26 05:27:55;;;;;;;29.35;27.80;;;;;;;;;;5036452;28;20068;-62
2022/08/26 05:30:21;;;;;;;31.13;29.40;;;;;;;;;;5033342;28;20065;-62
2022/08/26 05:32:48;;;;;;;26.42;24.83;;;;;;;;;;5033692;28;20489;-62
2022/08/26 05:35:15;;;;;;;24.48;23.17;;;;;;;;;;5037863;28;20025;-62
2022/08/26 05:37:41;;;;;;;27.13;25.67;;;;;;;;;;5039176;28;20033;-62
2022/08/26 05:40:07;;;;;;;22.52;21.02;;;;;;;;;;5036372;28;20101;-62
2022/08/26 05:42:32;;;;;;;20.88;19.67;;;;;;;;;;5035041;28;20423;-62
2022/08/26 05:44:58;;;;;;;24.45;23.10;;;;;;;;;;5037732;28;20076;-64
2022/08/26 05:47:25;;;;;;;23.65;22.27;;;;;;;;;;5038049;28;20536;-64
2022/08/26 05:49:50;;;;;;;21.10;19.92;;;;;;;;;;5038724;28;20041;-64
2022/08/26 05:52:16;;;;;;;23.00;21.73;;;;;;;;;;5038794;28;20398;-63
2022/08/26 05:54:41;;;;;;;31.27;29.58;;;;;;;;;;5041075;28;20029;-63
2022/08/26 05:57:06;;;;;;;18.92;17.85;;;;;;;;;;5037666;28;20084;-63
2022/08/26 05:59:32;;;;;;;29.70;28.10;;;;;;;;;;5037901;28;20455;-63
2022/08/26 06:01:58;;;;;;;27.17;25.70;;;;;;;;;;5034666;28;20614;-63
2022/08/26 06:04:24;;;;;;;23.90;22.60;;;;;;;;;;5037154;28;20047;-63
2022/08/26 06:06:50;;;;;;;28.17;26.60;;;;;;;;;;5045203;28;20455;-62
2022/08/26 06:09:16;;;;;;;21.52;20.33;;;;;;;;;;5036141;28;20037;-61
2022/08/26 06:11:41;;;;;;;17.15;16.17;;;;;;;;;;5037494;28;20065;-61
2022/08/26 06:14:07;;;;;;;20.50;19.25;;;;;;;;;;5039062;28;20033;-61
2022/08/26 06:16:37;;;;;;;21.65;20.45;;;;;;;;;;5039340;28;20336;-61
2022/08/26 06:19:04;;;;;;;22.77;21.20;;;;;;;;;;5037280;28;20033;-61
2022/08/26 06:21:33;;;;;;;24.02;22.75;;;;;;;;;;5039058;28;20037;-61
2022/08/26 06:26:53;;;;;;;25.70;24.30;;;;;;;;;;5035705;28;20431;-61
2022/08/26 06:29:21;;;;;;;23.52;22.25;;;;;;;;;;5038545;28;20049;-61
2022/08/26 06:31:47;;;;;;;29.40;27.85;;;;;;;;;;5037508;28;20056;-62
2022/08/26 06:34:12;;;;;;;33.78;31.92;;;;;;;;;;5039512;28;20056;-61
2022/08/26 06:36:40;;;;;;;33.65;31.90;;;;;;;;;;5037167;28;20094;-61
2022/08/26 06:39:09;;;;;;;36.03;34.13;;;;;;;;;;5038429;28;20173;-61
2022/08/26 06:41:35;;;;;;;31.55;29.92;;;;;;;;;;5039178;28;20030;-61
2022/08/26 06:44:02;;;;;;;27.27;25.77;;;;;;;;;;5040374;28;20099;-62
2022/08/26 06:46:28;;;;;;;27.92;26.42;;;;;;;;;;5037406;28;20033;-61
2022/08/26 06:48:56;;;;;;;28.45;26.95;;;;;;;;;;5040351;28;20036;-62
2022/08/26 06:51:28;;;;;;;27.55;26.10;;;;;;;;;;5033456;28;20136;-61
2022/08/26 06:53:56;;;;;;;21.15;20.02;;;;;;;;;;5039927;28;20041;-61
2022/08/26 06:56:24;;;;;;;30.55;28.88;;;;;;;;;;5038399;28;20112;-61
2022/08/26 06:58:50;;;;;;;40.70;38.58;;;;;;;;;;5017123;28;20078;-62
2022/08/26 07:01:23;;;;;;;35.10;33.22;;;;;;;;;;5036700;28;20497;-61
2022/08/26 07:03:50;;;;;;;54.53;51.78;;;;;;;;;;5035364;28;20033;-62
2022/08/26 07:06:19;;;;;;;47.00;44.60;;;;;;;;;;5037888;28;20458;-62
2022/08/26 07:08:50;;;;;;;64.97;61.53;;;;;;;;;;5039295;28;20041;-62
2022/08/26 07:11:18;;;;;;;29.92;28.25;;;;;;;;;;5039708;28;20147;-62
2022/08/26 07:13:44;;;;;;;15.50;14.40;;;;;;;;;;5037089;28;20099;-62
2022/08/26 07:16:12;;;;;;;8.70;8.10;;;;;;;;;;5036265;28;20052;-62
2022/08/26 07:18:40;;;;;;;10.15;9.52;;;;;;;;;;5037080;28;20067;-62
2022/08/26 07:21:08;;;;;;;11.02;10.32;;;;;;;;;;5034643;28;20040;-62
2022/08/26 07:23:35;;;;;;;12.10;11.35;;;;;;;;;;5037910;28;20040;-63
2022/08/26 07:26:05;;;;;;;9.40;8.70;;;;;;;;;;5036938;28;20064;-62
2022/08/26 07:28:31;;;;;;;12.10;11.30;;;;;;;;;;5041102;28;20039;-62
2022/08/26 07:30:56;;;;;;;8.75;8.15;;;;;;;;;;5034801;28;20429;-62
2022/08/26 07:33:22;;;;;;;9.65;9.05;;;;;;;;;;5040667;28;20026;-62
2022/08/26 07:35:47;;;;;;;10.07;9.43;;;;;;;;;;5036523;28;20048;-62
2022/08/26 07:38:13;;;;;;;33.10;31.35;;;;;;;;;;5037823;28;20458;-62
2022/08/26 07:40:39;;;;;;;22.33;21.13;;;;;;;;;;5037673;28;20025;-62
2022/08/26 07:43:06;;;;;;;10.20;9.45;;;;;;;;;;5033729;28;20037;-62
2022/08/26 07:45:31;;;;;;;9.63;8.93;;;;;;;;;;5040768;28;20029;-62
2022/08/26 07:47:57;;;;;;;11.82;10.98;;;;;;;;;;5037945;28;20427;-62
2022/08/26 07:50:23;;;;;;;12.75;11.85;;;;;;;;;;5030980;28;20053;-62
2022/08/26 07:52:48;;;;;;;37.03;35.10;;;;;;;;;;5037214;28;20036;-62
2022/08/26 07:55:16;;;;;;;10.07;9.48;;;;;;;;;;5035970;28;20325;-62
2022/08/26 07:57:42;;;;;;;15.10;14.10;;;;;;;;;;5036417;28;20486;-62
2022/08/26 08:00:12;;;;;;;20.42;19.25;;;;;;;;;;5040848;28;20063;-62
2022/08/26 08:02:37;;;;;;;101.82;96.70;;;;;;;;;;5040146;28;20041;-62
2022/08/26 08:05:05;;;;;;;11.90;11.15;;;;;;;;;;5035800;28;20029;-63
2022/08/26 08:07:30;;;;;;;62.83;59.65;;;;;;;;;;5038903;28;20041;-61
2022/08/26 08:09:56;;;;;;;19.67;18.58;;;;;;;;;;5037538;28;20425;-63
2022/08/26 08:12:21;;;;;;;12.02;11.25;;;;;;;;;;5037464;28;20079;-62
2022/08/26 08:14:47;;;;;;;102.95;97.75;;;;;;;;;;5033979;28;20025;-62
2022/08/26 08:17:13;;;;;;;24.25;22.95;;;;;;;;;;5035365;28;20435;-62
2022/08/26 08:19:39;;;;;;;26.58;25.10;;;;;;;;;;5034477;28;20040;-63
2022/08/26 08:22:06;;;;;;;27.00;25.55;;;;;;;;;;5035347;28;20029;-63
2022/08/26 08:24:33;;;;;;;14.10;13.10;;;;;;;;;;5036978;28;20136;-61
2022/08/26 08:27:00;;;;;;;15.65;14.75;;;;;;;;;;5037453;28;20514;-63
2022/08/26 08:29:28;;;;;;;17.10;16.10;;;;;;;;;;5034277;28;20049;-63
2022/08/26 08:31:54;;;;;;;20.17;13.95;;;;;;;;;;5032078;28;20030;-63
2022/08/26 08:34:20;;;;;;;25.88;24.50;;;;;;;;;;5036275;28;20389;-63
2022/08/26 08:36:45;;;;;;;22.83;21.52;;;;;;;;;;5036762;28;20451;-62
2022/08/26 08:39:11;;;;;;;18.38;17.27;;;;;;;;;;5037149;28;20013;-62
2022/08/26 08:41:51;;;;;;;31.55;18.23;;;;;;;;;;5035024;28;20389;-63
2022/08/26 08:44:19;;;;;;;13.57;12.77;;;;;;;;;;5037790;28;20031;-61
2022/08/26 08:46:50;;;;;;;30.13;28.52;;;;;;;;;;5035344;28;20140;-62
2022/08/26 08:49:16;;;;;;;58.55;55.55;;;;;;;;;;5036824;28;20466;-62
2022/08/26 08:51:57;;;;;;;33.15;31.42;;;;;;;;;;5032901;28;20041;-60
2022/08/26 08:54:25;;;;;;;31.67;29.98;;;;;;;;;;5035654;28;20317;-62
2022/08/26 08:57:30;;;;;;;76.47;72.68;;;;;;;;;;5039813;28;20057;-62
2022/08/26 09:00:10;;;;;;;25.10;23.70;;;;;;;;;;4996910;28;20132;-62
2022/08/26 09:02:55;;;;;;;22.13;20.92;;;;;;;;;;5035234;28;20073;-62
2022/08/26 09:05:23;;;;;;;31.85;30.15;;;;;;;;;;5036162;28;20033;-62
2022/08/26 09:08:00;;;;;;;62.10;58.95;;;;;;;;;;5036300;28;20634;-62
2022/08/26 09:10:28;;;;;;;87.00;82.68;;;;;;;;;;5040597;28;20554;-62
2022/08/26 09:12:53;;;;;;;26.85;25.35;;;;;;;;;;5039463;28;20037;-62
2022/08/26 09:15:25;;;;;;;51.15;48.53;;;;;;;;;;5041867;28;20042;-62
2022/08/26 09:18:15;;;;;;;104.63;99.43;;;;;;;;;;5040035;28;20547;-62
2022/08/26 09:21:04;;;;;;;103.07;97.97;;;;;;;;;;5037076;28;20550;-62
2022/08/26 09:23:34;;;;;;;72.95;69.28;;;;;;;;;;5038901;28;20048;-62
2022/08/26 09:26:11;;;;;;;132.60;126.05;;;;;;;;;;5037284;28;20021;-62
2022/08/26 09:28:41;;;;;;;30.00;28.40;;;;;;;;;;5037881;28;20108;-62
2022/08/26 09:31:11;;;;;;;62.13;58.92;;;;;;;;;;5041012;28;20494;-62
2022/08/26 09:33:39;;;;;;;139.50;132.48;;;;;;;;;;5040885;28;20040;-62
2022/08/26 09:36:21;;;;;;;74.15;70.47;;;;;;;;;;5038778;28;20687;-62
2022/08/26 09:38:48;;;;;;;135.57;128.85;;;;;;;;;;5040020;28;20375;-62
2022/08/26 09:41:23;;;;;;;143.60;136.45;;;;;;;;;;5040314;28;20060;-62
2022/08/26 09:44:11;;;;;;;140.32;133.35;;;;;;;;;;5037523;28;20060;-62
2022/08/26 09:46:39;;;;;;;107.03;101.72;;;;;;;;;;5039826;28;20055;-62
2022/08/26 09:49:30;;;;;;;155.15;147.18;;;;;;;;;;5040811;28;20095;-61
2022/08/26 09:52:31;;;;;;;131.65;125.13;;;;;;;;;;5040071;28;20041;-61
2022/08/26 09:55:10;;;;;;;169.48;161.10;;;;;;;;;;4967016;28;20035;-62
2022/08/26 09:57:46;;;;;;;128.55;122.13;;;;;;;;;;5030908;28;20053;-61
2022/08/26 10:00:32;;;;;;;155.18;147.48;;;;;;;;;;5039109;28;20628;-61
2022/08/26 10:03:01;;;;;;;159.90;151.90;;;;;;;;;;5046453;28;20082;-61
2022/08/26 10:05:51;;;;;;;165.52;157.38;;;;;;;;;;5036281;28;20033;-60
2022/08/26 10:08:40;;;;;;;128.55;122.20;;;;;;;;;;4989492;28;20041;-61
2022/08/26 10:11:16;;;;;;;152.55;145.00;;;;;;;;;;5036641;28;20064;-60
2022/08/26 10:13:47;;;;;;;161.27;152.65;;;;;;;;;;5040382;28;20029;-60
2022/08/26 10:16:15;;;;;;;153.43;145.82;;;;;;;;;;5038414;28;20021;-60
2022/08/26 10:19:08;;;;;;;136.98;130.13;;;;;;;;;;5033215;28;20043;-61
2022/08/26 10:21:59;;;;;;;96.40;91.65;;;;;;;;;;5033502;28;20387;-61
2022/08/26 10:24:31;;;;;;;50.08;47.42;;;;;;;;;;5035929;28;20029;-61
2022/08/26 10:27:06;;;;;;;45.08;42.60;;;;;;;;;;5036130;28;20099;-60
2022/08/26 10:29:41;;;;;;;51.63;48.67;;;;;;;;;;5040187;28;20053;-61
2022/08/26 10:32:14;;;;;;;40.03;37.75;;;;;;;;;;5038484;28;20108;-61
2022/08/26 10:34:41;;;;;;;64.75;61.22;;;;;;;;;;5035995;28;20120;-61
2022/08/26 10:37:11;;;;;;;21.67;20.48;;;;;;;;;;5038546;28;20058;-62
2022/08/26 10:39:59;;;;;;;46.10;43.55;;;;;;;;;;5036970;28;20078;-61
2022/08/26 10:42:41;;;;;;;34.42;32.40;;;;;;;;;;5033618;28;20036;-62
2022/08/26 10:45:18;;;;;;;20.15;19.05;;;;;;;;;;5035773;28;20402;-61
2022/08/26 10:47:49;;;;;;;15.38;14.40;;;;;;;;;;5038765;28;20068;-60
2022/08/26 10:50:14;;;;;;;15.80;14.90;;;;;;;;;;5037074;28;20082;-61
2022/08/26 10:53:05;;;;;;;13.13;12.32;;;;;;;;;;5041483;28;20382;-61
2022/08/26 10:55:41;;;;;;;12.13;11.32;;;;;;;;;;5037235;28;20041;-60
2022/08/26 10:58:28;;;;;;;15.05;14.15;;;;;;;;;;5034849;28;20120;-62
2022/08/26 11:04:04;;;;;;;13.95;12.13;;;;;;;;;;5042503;28;20063;-61
2022/08/26 11:06:30;;;;;;;14.45;13.55;;;;;;;;;;5038671;28;20039;-62
2022/08/26 11:08:59;;;;;;;12.02;11.23;;;;;;;;;;5037389;28;20124;-61
2022/08/26 11:11:47;;;;;;;11.07;10.38;;;;;;;;;;5037416;28;20025;-62
2022/08/26 11:14:18;;;;;;;12.27;11.48;;;;;;;;;;5038294;28;20052;-61
2022/08/26 11:16:44;;;;;;;13.15;12.07;;;;;;;;;;5036640;28;20045;-62
2022/08/26 11:19:40;;;;;;;9.98;9.25;;;;;;;;;;5032770;28;20025;-61
2022/08/26 11:22:10;;;;;;;10.52;9.82;;;;;;;;;;5036805;28;20513;-60
2022/08/26 11:24:53;;;;;;;12.57;11.77;;;;;;;;;;5034720;28;20037;-60
2022/08/26 11:27:22;;;;;;;9.50;8.90;;;;;;;;;;5034869;28;20108;-60
2022/08/26 11:30:27;;;;;;;12.20;11.25;;;;;;;;;;5038145;28;20086;-60
2022/08/26 11:32:55;;;;;;;18.33;17.20;;;;;;;;;;5037592;28;20504;-62
2022/08/26 11:35:23;;;;;;;11.45;10.73;;;;;;;;;;5036950;28;20047;-64
2022/08/26 11:38:13;;;;;;;10.45;9.75;;;;;;;;;;5039325;28;20365;-62
2022/08/26 11:40:40;;;;;;;12.98;11.98;;;;;;;;;;5036965;28;20351;-62
2022/08/26 11:43:18;;;;;;;9.82;9.23;;;;;;;;;;5037231;28;20690;-62
2022/08/26 11:46:10;;;;;;;11.27;10.57;;;;;;;;;;5036125;28;20048;-61
2022/08/26 11:48:39;;;;;;;11.90;11.10;;;;;;;;;;5032063;28;20045;-60
2022/08/26 11:51:10;;;;;;;20.95;19.42;;;;;;;;;;5036746;28;20572;-60
2022/08/26 11:53:41;;;;;;;12.18;11.43;;;;;;;;;;5032889;28;20618;-60
2022/08/26 11:56:10;;;;;;;25.27;23.80;;;;;;;;;;5034965;28;20141;-61
2022/08/26 11:58:41;;;;;;;35.92;33.97;;;;;;;;;;5021368;28;20037;-62
2022/08/26 12:01:08;;;;;;;23.17;21.83;;;;;;;;;;5039052;28;20073;-62
2022/08/26 12:03:47;;;;;;;33.90;32.00;;;;;;;;;;5034686;28;20052;-61
2022/08/26 12:06:21;;;;;;;64.10;60.80;;;;;;;;;;5037079;28;20631;-61
2022/08/26 12:08:47;;;;;;;65.65;62.28;;;;;;;;;;5036291;28;20068;-61
2022/08/26 12:11:21;;;;;;;62.53;59.28;;;;;;;;;;5034482;28;20478;-60
2022/08/26 12:14:04;;;;;;;53.85;51.08;;;;;;;;;;5032141;28;20044;-60
2022/08/26 12:16:33;;;;;;;103.43;98.28;;;;;;;;;;5045065;28;20040;-60
2022/08/26 12:18:58;;;;;;;153.02;145.32;;;;;;;;;;5036928;28;20422;-60
2022/08/26 12:21:28;;;;;;;152.10;144.55;;;;;;;;;;5035604;28;20048;-60
2022/08/26 12:24:01;;;;;;;149.32;141.93;;;;;;;;;;5036584;28;20109;-60
2022/08/26 12:26:33;;;;;;;164.70;156.55;;;;;;;;;;5034946;28;20132;-61
2022/08/26 12:29:05;;;;;;;187.13;177.90;;;;;;;;;;5035573;28;20034;-60
2022/08/26 12:31:36;;;;;;;150.93;143.43;;;;;;;;;;5039122;28;20165;-60
2022/08/26 12:34:04;;;;;;;165.48;157.27;;;;;;;;;;5036656;28;20363;-61
2022/08/26 12:36:32;;;;;;;202.68;192.65;;;;;;;;;;5036839;28;20029;-60
2022/08/26 12:39:09;;;;;;;283.30;269.10;;;;;;;;;;5035774;28;20102;-60
2022/08/26 12:41:49;;;;;;;293.17;278.60;;;;;;;;;;5032239;28;20030;-60
2022/08/26 12:44:34;;;;;;;189.50;180.20;;;;;;;;;;5037283;28;20025;-61
2022/08/26 12:47:07;;;;;;;235.18;223.60;;;;;;;;;;5035477;28;20026;-61
2022/08/26 12:49:33;;;;;;;358.45;340.13;;;;;;;;;;5033790;28;20174;-60
2022/08/26 12:51:59;;;;;;;310.30;294.83;;;;;;;;;;5035116;28;20096;-61
2022/08/26 12:54:57;;;;;;;324.60;308.30;;;;;;;;;;5034848;28;20038;-60
2022/08/26 12:57:12;;;;;;;315.45;299.42;;;;;;;;;;5035067;28;20032;-60
2022/08/26 12:59:38;;;;;;;283.35;269.08;;;;;;;;;;5036580;28;20033;-60
2022/08/26 13:02:03;;;;;;;230.27;218.90;;;;;;;;;;5035717;28;20029;-60
2022/08/26 13:04:40;;;;;;;207.13;196.73;;;;;;;;;;5034813;28;20040;-60
2022/08/26 13:07:23;;;;;;;244.00;231.73;;;;;;;;;;5029648;28;20037;-60
2022/08/26 13:09:51;;;;;;;276.60;262.73;;;;;;;;;;5028159;28;20064;-60
2022/08/26 13:12:35;;;;;;;365.52;346.30;;;;;;;;;;5030596;28;20047;-60
2022/08/26 13:15:04;;;;;;;451.50;426.75;;;;;;;;;;5032724;28;20067;-60
2022/08/26 13:17:30;;;;;;;469.25;443.10;;;;;;;;;;5031873;28;20084;-60
2022/08/26 13:19:57;;;;;;;407.95;386.13;;;;;;;;;;5032169;28;20979;-61
2022/08/26 13:22:23;;;;;;;345.38;327.25;;;;;;;;;;5030412;28;20908;-60
2022/08/26 13:24:53;;;;;;;291.13;276.20;;;;;;;;;;5032222;28;20091;-61
2022/08/26 13:27:20;;;;;;;374.73;354.85;;;;;;;;;;5031241;28;20163;-60
2022/08/26 13:29:46;;;;;;;466.63;440.92;;;;;;;;;;5035328;28;20040;-61
2022/08/26 13:32:12;;;;;;;303.25;287.65;;;;;;;;;;5030007;28;20029;-61
2022/08/26 13:34:38;;;;;;;417.85;395.73;;;;;;;;;;5030804;28;20033;-62
2022/08/26 13:37:04;;;;;;;366.08;346.75;;;;;;;;;;5033550;28;20471;-60
2022/08/26 13:39:29;;;;;;;341.25;323.42;;;;;;;;;;5033779;28;20117;-60
2022/08/26 13:41:55;;;;;;;346.80;328.63;;;;;;;;;;5031515;28;20124;-60
2022/08/26 13:44:20;;;;;;;382.90;362.17;;;;;;;;;;5030866;28;20060;-60
2022/08/26 13:46:46;;;;;;;223.35;212.02;;;;;;;;;;5032911;28;20029;-61
2022/08/26 13:49:12;;;;;;;297.60;282.10;;;;;;;;;;5032023;28;20040;-60
2022/08/26 13:51:38;;;;;;;345.10;326.90;;;;;;;;;;5034128;28;20630;-60
2022/08/26 13:54:04;;;;;;;409.73;387.45;;;;;;;;;;5031913;28;20035;-60
2022/08/26 13:56:30;;;;;;;388.88;368.02;;;;;;;;;;5035383;28;20056;-60
2022/08/26 13:58:58;;;;;;;417.38;394.98;;;;;;;;;;5041109;28;20060;-60
2022/08/26 14:01:25;;;;;;;397.30;376.13;;;;;;;;;;5039926;28;20063;-60
2022/08/26 14:03:50;;;;;;;436.92;413.13;;;;;;;;;;5038678;28;20124;-59
2022/08/26 14:06:16;;;;;;;446.38;422.08;;;;;;;;;;5038027;28;20416;-60
2022/08/26 14:08:41;;;;;;;387.98;367.58;;;;;;;;;;5039996;28;20044;-60
2022/08/26 14:11:07;;;;;;;355.58;337.15;;;;;;;;;;5039490;28;20037;-60
2022/08/26 14:13:33;;;;;;;401.88;380.83;;;;;;;;;;5034210;28;20025;-60
2022/08/26 14:16:00;;;;;;;420.10;397.98;;;;;;;;;;5037331;28;20098;-61
2022/08/26 14:18:36;;;;;;;347.33;329.77;;;;;;;;;;5035129;28;20036;-61
2022/08/26 14:21:04;;;;;;;385.80;365.67;;;;;;;;;;5041673;28;20488;-60
2022/08/26 14:23:29;;;;;;;461.88;437.00;;;;;;;;;;5038258;28;20029;-59
2022/08/26 14:25:55;;;;;;;403.13;382.02;;;;;;;;;;5038590;28;20045;-60
2022/08/26 14:28:20;;;;;;;313.40;297.52;;;;;;;;;;5037528;28;20021;-60
2022/08/26 14:30:54;;;;;;;167.38;159.07;;;;;;;;;;5037413;28;20044;-63
2022/08/26 14:33:24;;;;;;;191.98;182.55;;;;;;;;;;5038370;28;20025;-62
2022/08/26 14:35:50;;;;;;;157.98;150.18;;;;;;;;;;5040082;28;20029;-62